Time;durP1;ratioP1;P1;durP2;ratioP2;P2;SDS_P1;SDS_P2;PMS_P1;PMS_P2;Temp;Humidity;BMP_temperature;BMP_pressure;BME280_temperature;BME280_humidity;BME280_pressure;Samples;Min_cycle;Max_cycle;Signal;HPM_P1;HPM_P2
2024/03/21 00:01:48;;;;;;;19.65;8.05;;;9.40;99.90;;;;;;4968941;28;20030;-61
2024/03/21 00:04:13;;;;;;;18.83;9.57;;;9.30;99.90;;;;;;4974137;28;20030;-62
2024/03/21 00:06:39;;;;;;;20.25;9.00;;;9.30;99.90;;;;;;4977939;28;20034;-61
2024/03/21 00:09:08;;;;;;;18.73;8.20;;;9.30;99.90;;;;;;4982374;28;20385;-62
2024/03/21 00:11:34;;;;;;;16.60;8.30;;;9.20;99.90;;;;;;4978371;28;20098;-62
2024/03/21 00:13:59;;;;;;;19.83;8.88;;;9.20;99.90;;;;;;4983261;28;20176;-61
2024/03/21 00:16:25;;;;;;;15.52;8.05;;;9.20;99.90;;;;;;4984333;28;20042;-61
2024/03/21 00:18:52;;;;;;;20.48;8.75;;;9.10;99.90;;;;;;4983731;28;20069;-61
2024/03/21 00:21:17;;;;;;;16.40;8.45;;;9.10;99.90;;;;;;4984298;28;20072;-61
2024/03/21 00:23:43;;;;;;;15.25;8.02;;;9.00;99.90;;;;;;4981236;28;20560;-61
2024/03/21 00:26:09;;;;;;;14.80;8.32;;;8.80;99.90;;;;;;4980234;28;20034;-61
2024/03/21 00:28:34;;;;;;;16.80;8.30;;;8.80;99.90;;;;;;4981754;28;20032;-61
2024/03/21 00:31:00;;;;;;;17.17;8.70;;;8.60;99.90;;;;;;4978463;28;20023;-61
2024/03/21 00:33:27;;;;;;;18.05;8.80;;;8.50;99.90;;;;;;4976384;28;20030;-62
2024/03/21 00:35:52;;;;;;;17.20;8.63;;;8.50;99.90;;;;;;4986576;28;20018;-61
2024/03/21 00:38:18;;;;;;;20.80;8.82;;;8.40;99.90;;;;;;4983153;28;20397;-62
2024/03/21 00:40:44;;;;;;;17.00;7.97;;;8.50;99.90;;;;;;4983300;28;20376;-61
2024/03/21 00:43:10;;;;;;;18.33;8.13;;;8.50;99.90;;;;;;4981951;28;20037;-61
2024/03/21 00:45:36;;;;;;;19.30;8.55;;;8.40;99.90;;;;;;4977396;28;20027;-61
2024/03/21 00:48:02;;;;;;;18.77;8.70;;;8.40;99.90;;;;;;4979754;28;20132;-62
2024/03/21 00:50:29;;;;;;;17.33;8.95;;;8.30;99.90;;;;;;4975595;28;20109;-61
2024/03/21 00:52:55;;;;;;;15.27;7.75;;;8.40;99.90;;;;;;4975040;28;20114;-61
2024/03/21 00:55:21;;;;;;;20.65;9.52;;;8.40;99.90;;;;;;4981517;28;20449;-61
2024/03/21 00:57:46;;;;;;;20.05;8.70;;;8.20;99.90;;;;;;4980062;28;20030;-61
2024/03/21 01:00:13;;;;;;;20.45;9.50;;;8.20;99.90;;;;;;4977518;28;20390;-61
2024/03/21 01:02:39;;;;;;;19.63;8.82;;;8.10;99.90;;;;;;4981470;28;20030;-61
2024/03/21 01:05:06;;;;;;;19.02;8.80;;;8.00;99.90;;;;;;4978559;28;20019;-62
2024/03/21 01:07:32;;;;;;;19.40;8.73;;;8.00;99.90;;;;;;4980249;28;20026;-62
2024/03/21 01:09:58;;;;;;;20.13;8.55;;;8.00;99.90;;;;;;4979684;28;20497;-61
2024/03/21 01:12:23;;;;;;;18.35;8.40;;;7.90;99.90;;;;;;4984183;28;20026;-61
2024/03/21 01:14:49;;;;;;;15.63;8.48;;;7.80;99.90;;;;;;4983029;28;20054;-62
2024/03/21 01:17:14;;;;;;;27.42;9.93;;;7.80;99.90;;;;;;4985178;28;20077;-61
2024/03/21 01:19:40;;;;;;;20.30;9.98;;;7.90;99.90;;;;;;4984710;28;20434;-61
2024/03/21 01:22:06;;;;;;;21.17;9.02;;;7.90;99.90;;;;;;4981194;28;20509;-61
2024/03/21 01:24:32;;;;;;;18.95;9.27;;;7.90;99.90;;;;;;4984368;28;20063;-62
2024/03/21 01:26:58;;;;;;;17.67;9.25;;;7.90;99.90;;;;;;4980677;28;20440;-62
2024/03/21 01:29:23;;;;;;;17.55;8.75;;;8.00;99.90;;;;;;4984252;28;20031;-61
2024/03/21 01:31:49;;;;;;;17.33;8.77;;;8.20;99.90;;;;;;4983621;28;20028;-61
2024/03/21 01:34:15;;;;;;;21.55;9.60;;;8.30;99.90;;;;;;4982448;28;20023;-61
2024/03/21 01:36:47;;;;;;;21.20;8.48;;;8.60;99.90;;;;;;4983134;28;20038;-61
2024/03/21 01:39:14;;;;;;;19.52;8.23;;;8.90;99.90;;;;;;4980304;28;20072;-62
2024/03/21 01:41:40;;;;;;;19.80;9.40;;;8.80;99.90;;;;;;4981160;28;20023;-61
2024/03/21 01:44:21;;;;;;;15.90;8.20;;;8.80;99.90;;;;;;4982440;28;20033;-61
2024/03/21 01:46:47;;;;;;;18.75;8.23;;;8.70;99.90;;;;;;4981484;28;20506;-61
2024/03/21 01:49:14;;;;;;;17.55;7.45;;;8.60;99.90;;;;;;4988804;28;20045;-61
2024/03/21 01:51:42;;;;;;;13.30;6.38;;;8.60;99.90;;;;;;4982356;28;20033;-61
2024/03/21 01:54:10;;;;;;;15.18;6.47;;;8.70;99.90;;;;;;4981450;28;20485;-61
2024/03/21 01:56:37;;;;;;;11.55;6.00;;;8.90;99.90;;;;;;4982720;28;20042;-61
2024/03/21 01:59:04;;;;;;;12.77;6.72;;;9.00;99.90;;;;;;4981670;28;20441;-62
2024/03/21 02:01:31;;;;;;;12.93;6.47;;;9.00;99.90;;;;;;4980615;28;20114;-63
2024/03/21 02:03:59;;;;;;;13.48;6.63;;;9.10;99.90;;;;;;4981927;28;20022;-62
2024/03/21 02:06:27;;;;;;;13.27;6.32;;;9.20;99.90;;;;;;4981595;28;20062;-61
2024/03/21 02:08:53;;;;;;;13.10;6.40;;;9.20;99.90;;;;;;4982467;28;20030;-62
2024/03/21 02:11:22;;;;;;;17.55;7.65;;;9.00;99.90;;;;;;4983579;28;20070;-62
2024/03/21 02:13:50;;;;;;;14.65;6.40;;;9.10;99.90;;;;;;4976476;28;20239;-62
2024/03/21 02:16:16;;;;;;;14.70;6.40;;;8.90;99.90;;;;;;4986822;28;20089;-62
2024/03/21 02:18:42;;;;;;;15.65;6.63;;;8.80;99.90;;;;;;4986139;28;20050;-62
2024/03/21 02:23:54;;;;;;;16.13;6.80;;;9.20;99.90;;;;;;4964620;28;20446;-63
2024/03/21 02:26:20;;;;;;;13.43;6.20;;;9.30;99.90;;;;;;4984209;28;20049;-62
2024/03/21 02:28:47;;;;;;;15.95;7.10;;;9.30;99.90;;;;;;4985963;28;20120;-62
2024/03/21 02:31:13;;;;;;;15.02;7.20;;;9.30;99.90;;;;;;4984478;28;20077;-63
2024/03/21 02:33:39;;;;;;;17.55;7.45;;;9.30;99.90;;;;;;4985170;28;20178;-63
2024/03/21 02:36:05;;;;;;;14.68;6.65;;;9.30;99.90;;;;;;4987977;28;20030;-62
2024/03/21 02:38:31;;;;;;;17.55;7.97;;;9.30;99.90;;;;;;4985855;28;20040;-63
2024/03/21 02:40:56;;;;;;;15.82;6.88;;;9.40;99.90;;;;;;4986371;28;20093;-63
2024/03/21 02:43:22;;;;;;;13.10;6.68;;;9.40;99.90;;;;;;4983287;28;20022;-62
2024/03/21 02:45:48;;;;;;;14.30;7.45;;;9.40;99.90;;;;;;4986110;28;20018;-63
2024/03/21 02:48:13;;;;;;;14.98;6.88;;;9.30;99.90;;;;;;4985738;28;20512;-62
2024/03/21 02:50:39;;;;;;;13.18;6.93;;;9.30;99.90;;;;;;4988387;28;20034;-62
2024/03/21 02:53:04;;;;;;;14.82;7.00;;;9.30;99.90;;;;;;4987767;28;20102;-62
2024/03/21 02:55:30;;;;;;;15.65;7.78;;;9.20;99.90;;;;;;4978471;28;20035;-62
2024/03/21 02:57:56;;;;;;;17.85;7.75;;;9.20;99.90;;;;;;4985538;28;20079;-62
2024/03/21 03:00:21;;;;;;;13.65;7.10;;;9.10;99.90;;;;;;4986345;28;20027;-63
2024/03/21 03:02:48;;;;;;;15.13;7.70;;;9.10;99.90;;;;;;4983839;28;20061;-62
2024/03/21 03:05:15;;;;;;;15.27;7.43;;;9.00;99.90;;;;;;4983915;28;20026;-62
2024/03/21 03:07:40;;;;;;;14.50;7.53;;;9.00;99.90;;;;;;4984068;28;20529;-62
2024/03/21 03:10:07;;;;;;;15.63;7.72;;;9.00;99.90;;;;;;4983694;28;20110;-61
2024/03/21 03:12:33;;;;;;;15.13;8.50;;;9.10;99.90;;;;;;4980767;28;20022;-61
2024/03/21 03:14:58;;;;;;;15.82;7.68;;;9.20;99.90;;;;;;4984802;28;20046;-61
2024/03/21 03:17:24;;;;;;;15.60;7.88;;;9.30;99.90;;;;;;4983662;28;20038;-61
2024/03/21 03:19:50;;;;;;;17.17;7.97;;;9.50;99.90;;;;;;4985509;28;20033;-61
2024/03/21 03:22:15;;;;;;;17.50;8.68;;;9.50;99.90;;;;;;4984454;28;20478;-61
2024/03/21 03:24:41;;;;;;;16.48;8.23;;;9.60;99.90;;;;;;4985054;28;20030;-61
2024/03/21 03:27:06;;;;;;;21.23;9.35;;;9.50;99.90;;;;;;4977632;28;20110;-61
2024/03/21 03:29:32;;;;;;;19.45;9.60;;;9.50;99.90;;;;;;4982128;28;20508;-61
2024/03/21 03:32:03;;;;;;;27.77;10.00;;;9.50;99.90;;;;;;4979888;28;20077;-62
2024/03/21 03:37:14;;;;;;;18.98;9.75;;;9.80;99.90;;;;;;4985954;28;20072;-61
2024/03/21 03:39:39;;;;;;;18.98;10.25;;;9.80;99.90;;;;;;4976545;28;20089;-62
2024/03/21 03:42:05;;;;;;;19.92;10.25;;;9.70;99.90;;;;;;4981872;28;20019;-61
2024/03/21 03:44:31;;;;;;;20.98;10.52;;;9.50;99.90;;;;;;4981608;28;20054;-61
2024/03/21 03:46:56;;;;;;;20.60;11.15;;;9.30;99.90;;;;;;4978605;28;20038;-61
2024/03/21 03:49:22;;;;;;;24.45;11.75;;;9.30;99.90;;;;;;4991090;28;20053;-61
2024/03/21 03:51:47;;;;;;;22.02;11.63;;;9.10;99.90;;;;;;4984650;28;20034;-61
2024/03/21 03:54:13;;;;;;;24.50;13.15;;;9.10;99.90;;;;;;4979893;28;20057;-61
2024/03/21 03:56:39;;;;;;;26.88;12.30;;;9.20;99.90;;;;;;4978654;28;20322;-61
2024/03/21 03:59:04;;;;;;;25.02;13.57;;;9.40;99.90;;;;;;4979046;28;20022;-60
2024/03/21 04:01:30;;;;;;;25.25;13.52;;;9.50;99.90;;;;;;4981776;28;20018;-62
2024/03/21 04:03:56;;;;;;;27.48;13.00;;;9.50;99.90;;;;;;4979690;28;20042;-62
2024/03/21 04:06:21;;;;;;;25.35;13.73;;;9.50;99.90;;;;;;4981549;28;20057;-61
2024/03/21 04:08:47;;;;;;;24.98;13.90;;;9.40;99.90;;;;;;4979652;28;20026;-62
2024/03/21 04:11:15;;;;;;;28.08;14.75;;;9.30;99.90;;;;;;4978863;28;20023;-61
2024/03/21 04:13:41;;;;;;;29.40;14.88;;;9.30;99.90;;;;;;4982526;28;20018;-61
2024/03/21 04:16:12;;;;;;;31.98;14.73;;;9.10;99.90;;;;;;4979808;28;20056;-62
2024/03/21 04:18:38;;;;;;;29.10;14.40;;;9.30;99.90;;;;;;4979099;28;20070;-63
2024/03/21 04:21:04;;;;;;;26.40;14.55;;;9.40;99.90;;;;;;4980029;28;20058;-62
2024/03/21 04:23:29;;;;;;;30.60;15.57;;;9.50;99.90;;;;;;4980962;28;20034;-62
2024/03/21 04:25:55;;;;;;;31.85;16.15;;;9.50;99.90;;;;;;4978013;28;20029;-62
2024/03/21 04:28:21;;;;;;;31.52;16.13;;;9.70;99.90;;;;;;4981887;28;20026;-62
2024/03/21 04:30:46;;;;;;;33.00;16.90;;;9.70;99.90;;;;;;4982752;28;20121;-62
2024/03/21 04:33:13;;;;;;;31.33;15.45;;;9.80;99.90;;;;;;4981295;28;20254;-62
2024/03/21 04:35:39;;;;;;;30.95;14.77;;;9.90;99.90;;;;;;4987735;28;20021;-62
2024/03/21 04:38:07;;;;;;;29.95;14.43;;;10.00;99.90;;;;;;4981518;28;20492;-62
2024/03/21 04:40:33;;;;;;;30.35;15.48;;;10.10;99.90;;;;;;4981056;28;20427;-61
2024/03/21 04:42:59;;;;;;;34.47;15.93;;;10.20;99.90;;;;;;4982353;28;20018;-62
2024/03/21 04:45:25;;;;;;;29.90;15.68;;;10.20;99.90;;;;;;4982268;28;20030;-62
2024/03/21 04:47:51;;;;;;;31.35;15.93;;;10.20;99.90;;;;;;4986532;28;20034;-62
2024/03/21 04:50:18;;;;;;;36.95;17.55;;;10.20;99.90;;;;;;4995647;28;20031;-62
2024/03/21 04:52:44;;;;;;;39.28;18.48;;;10.30;99.90;;;;;;4987962;28;20102;-62
2024/03/21 04:55:10;;;;;;;39.88;19.70;;;10.30;99.90;;;;;;4983505;28;20105;-62
2024/03/21 04:57:36;;;;;;;41.30;18.83;;;10.40;99.90;;;;;;4979369;28;20086;-62
2024/03/21 05:00:04;;;;;;;35.50;18.27;;;10.50;99.90;;;;;;4984608;28;20022;-62
2024/03/21 05:02:30;;;;;;;37.35;19.77;;;10.50;99.90;;;;;;4982667;28;20029;-62
2024/03/21 05:04:55;;;;;;;37.08;18.10;;;10.50;99.90;;;;;;4986255;28;20022;-62
2024/03/21 05:07:21;;;;;;;35.47;17.77;;;10.60;99.90;;;;;;4981904;28;20035;-62
2024/03/21 05:09:46;;;;;;;38.85;19.40;;;10.50;99.90;;;;;;4985399;28;20042;-62
2024/03/21 05:12:13;;;;;;;36.17;17.02;;;10.60;99.90;;;;;;4985118;28;20053;-62
2024/03/21 05:14:39;;;;;;;37.50;19.30;;;10.50;99.90;;;;;;4986244;28;20042;-62
2024/03/21 05:17:04;;;;;;;36.65;16.25;;;10.50;99.90;;;;;;4981184;28;20831;-62
2024/03/21 05:19:31;;;;;;;38.13;18.35;;;10.50;99.90;;;;;;4982523;28;20030;-61
2024/03/21 05:21:56;;;;;;;37.25;16.00;;;10.50;99.90;;;;;;4985253;28;20014;-61
2024/03/21 05:24:22;;;;;;;34.83;13.35;;;10.40;99.90;;;;;;4981438;28;20044;-61
2024/03/21 05:26:48;;;;;;;41.60;19.95;;;10.30;99.90;;;;;;4982824;28;20096;-61
2024/03/21 05:29:13;;;;;;;41.15;19.50;;;10.30;99.90;;;;;;4978198;28;20034;-61
2024/03/21 05:31:42;;;;;;;39.85;19.08;;;10.20;99.90;;;;;;4996667;28;20038;-61
2024/03/21 05:34:08;;;;;;;37.17;17.13;;;10.10;99.90;;;;;;4983378;28;20027;-62
2024/03/21 05:36:34;;;;;;;36.58;15.30;;;10.10;99.90;;;;;;4980431;28;20027;-61
2024/03/21 05:38:59;;;;;;;45.22;20.80;;;10.10;99.90;;;;;;4981460;28;20072;-62
2024/03/21 05:41:25;;;;;;;46.88;21.10;;;10.10;99.90;;;;;;4978249;28;20102;-61
2024/03/21 05:43:51;;;;;;;47.88;20.13;;;9.90;99.90;;;;;;4979759;28;20022;-63
2024/03/21 05:46:17;;;;;;;43.83;19.90;;;9.90;99.90;;;;;;4968183;28;20126;-61
2024/03/21 05:48:42;;;;;;;39.92;18.67;;;9.90;99.90;;;;;;4981392;28;20025;-61
2024/03/21 05:51:08;;;;;;;47.80;19.88;;;9.90;99.90;;;;;;4983870;28;20353;-61
2024/03/21 05:53:34;;;;;;;50.58;19.65;;;9.90;99.90;;;;;;4973924;28;20339;-61
2024/03/21 05:56:07;;;;;;;47.40;19.20;;;9.80;99.90;;;;;;4972432;28;20058;-61
2024/03/21 05:58:34;;;;;;;43.40;15.02;;;9.90;99.90;;;;;;4974354;28;20416;-61
2024/03/21 06:03:33;;;;;;;39.63;19.63;;;9.90;99.90;;;;;;4972918;28;20031;-61
2024/03/21 06:06:00;;;;;;;40.85;17.80;;;9.90;99.90;;;;;;4971758;28;20488;-61
2024/03/21 06:08:26;;;;;;;39.85;18.17;;;9.90;99.90;;;;;;4971032;28;20027;-62
2024/03/21 06:10:51;;;;;;;33.30;12.35;;;9.90;99.90;;;;;;4975322;28;20053;-61
2024/03/21 06:13:17;;;;;;;40.05;17.10;;;9.90;99.90;;;;;;4972349;28;20035;-61
2024/03/21 06:15:43;;;;;;;42.95;17.92;;;10.00;99.90;;;;;;4965794;28;20525;-61
2024/03/21 06:18:08;;;;;;;34.53;15.05;;;10.00;99.90;;;;;;4972605;28;20102;-60
2024/03/21 06:20:34;;;;;;;30.92;12.95;;;10.10;99.90;;;;;;4974378;28;20023;-61
2024/03/21 06:23:00;;;;;;;36.63;16.10;;;10.20;99.90;;;;;;4972308;28;20038;-61
2024/03/21 06:25:25;;;;;;;36.33;14.75;;;10.30;99.90;;;;;;4970129;28;20030;-60
2024/03/21 06:27:52;;;;;;;39.10;15.77;;;10.40;99.90;;;;;;4976293;28;20030;-60
2024/03/21 06:30:18;;;;;;;36.72;15.55;;;10.40;99.90;;;;;;4970150;28;20034;-61
2024/03/21 06:32:43;;;;;;;35.17;14.20;;;10.50;99.90;;;;;;4969079;28;20030;-61
2024/03/21 06:35:13;;;;;;;26.13;11.95;;;10.50;99.90;;;;;;4969719;28;20030;-61
2024/03/21 06:37:38;;;;;;;31.90;13.93;;;10.50;99.90;;;;;;4979968;28;20588;-61
2024/03/21 06:40:06;;;;;;;29.58;13.40;;;10.60;99.90;;;;;;4978162;28;20114;-61
2024/03/21 06:42:32;;;;;;;31.48;13.95;;;10.70;99.90;;;;;;4976630;28;20224;-62
2024/03/21 06:44:59;;;;;;;32.45;14.20;;;10.60;99.90;;;;;;4974342;28;20023;-61
2024/03/21 06:47:25;;;;;;;29.10;10.48;;;10.70;99.90;;;;;;4975224;28;20037;-61
2024/03/21 06:49:53;;;;;;;25.70;10.90;;;10.70;99.90;;;;;;4986807;28;20588;-61
2024/03/21 06:52:19;;;;;;;34.65;16.27;;;10.70;99.90;;;;;;4977919;28;20050;-61
2024/03/21 06:54:45;;;;;;;35.15;14.85;;;10.70;99.90;;;;;;4970232;28;20421;-61
2024/03/21 06:57:11;;;;;;;32.17;14.10;;;10.80;99.90;;;;;;4974688;28;20026;-61
2024/03/21 06:59:37;;;;;;;24.83;12.65;;;10.70;99.90;;;;;;4973794;28;20027;-61
2024/03/21 07:02:03;;;;;;;31.25;13.85;;;10.80;99.90;;;;;;4987081;28;20512;-61
2024/03/21 07:04:29;;;;;;;24.98;12.02;;;10.80;99.90;;;;;;4975591;28;20023;-62
2024/03/21 07:06:54;;;;;;;25.58;12.63;;;10.80;99.90;;;;;;4978750;28;20027;-61
2024/03/21 07:09:20;;;;;;;32.00;14.35;;;10.90;99.90;;;;;;4977106;28;20034;-61
2024/03/21 07:11:45;;;;;;;32.28;14.57;;;10.80;99.90;;;;;;4979654;28;20422;-60
2024/03/21 07:14:11;;;;;;;31.42;13.25;;;10.80;99.90;;;;;;4988234;28;20031;-61
2024/03/21 07:16:37;;;;;;;32.28;13.80;;;10.80;99.90;;;;;;4975177;28;20502;-61
2024/03/21 07:19:02;;;;;;;24.88;10.63;;;10.90;99.90;;;;;;4978773;28;20095;-60
2024/03/21 07:21:28;;;;;;;35.30;15.68;;;11.00;99.90;;;;;;4988322;28;20022;-61
2024/03/21 07:23:54;;;;;;;31.15;14.23;;;10.90;99.90;;;;;;4977170;28;20023;-62
2024/03/21 07:26:21;;;;;;;28.85;13.23;;;10.90;99.90;;;;;;4977194;28;20037;-62
2024/03/21 07:28:46;;;;;;;30.77;13.65;;;11.00;99.90;;;;;;4976754;28;20018;-63
2024/03/21 07:31:12;;;;;;;29.00;13.60;;;11.00;99.90;;;;;;4957384;28;20024;-62
2024/03/21 07:33:37;;;;;;;28.95;12.95;;;11.00;99.90;;;;;;4965868;28;20019;-63
2024/03/21 07:36:03;;;;;;;30.52;15.32;;;11.00;99.90;;;;;;4964754;28;20028;-63
2024/03/21 07:38:29;;;;;;;25.70;11.77;;;11.00;99.90;;;;;;4959967;28;20172;-62
2024/03/21 07:40:58;;;;;;;34.95;14.73;;;10.30;99.90;;;;;;4960149;28;20371;-62
2024/03/21 07:43:24;;;;;;;26.23;13.17;;;10.80;99.90;;;;;;4976364;28;20060;-63
2024/03/21 07:45:50;;;;;;;25.35;10.80;;;10.90;99.90;;;;;;4963898;28;20068;-62
2024/03/21 07:48:16;;;;;;;33.33;14.75;;;10.80;99.90;;;;;;4965137;28;20047;-63
2024/03/21 07:50:42;;;;;;;27.55;12.60;;;10.80;99.90;;;;;;4976995;28;20018;-62
2024/03/21 07:53:07;;;;;;;28.23;13.40;;;10.80;99.90;;;;;;4976089;28;20034;-63
2024/03/21 07:55:33;;;;;;;26.23;12.05;;;10.90;99.90;;;;;;4968489;28;20035;-63
2024/03/21 07:58:02;;;;;;;21.40;9.82;;;10.90;99.90;;;;;;4970899;28;20065;-63
2024/03/21 08:00:28;;;;;;;25.08;12.60;;;11.00;99.90;;;;;;4972960;28;20034;-63
2024/03/21 08:02:57;;;;;;;20.08;9.43;;;10.90;99.90;;;;;;4963032;28;20027;-62
2024/03/21 08:05:23;;;;;;;18.75;7.93;;;10.90;99.90;;;;;;4967366;28;20031;-63
2024/03/21 08:07:48;;;;;;;16.33;7.43;;;11.10;99.90;;;;;;4966484;28;20031;-62
2024/03/21 08:10:14;;;;;;;14.73;6.38;;;11.10;99.90;;;;;;4965309;28;20086;-63
2024/03/21 08:12:40;;;;;;;15.77;6.72;;;11.20;99.90;;;;;;4971356;28;20463;-62
2024/03/21 08:15:06;;;;;;;13.55;6.07;;;11.20;99.90;;;;;;4968673;28;20489;-63
2024/03/21 08:17:32;;;;;;;12.45;5.13;;;11.40;99.90;;;;;;4970639;28;20089;-62
2024/03/21 08:19:58;;;;;;;14.57;5.60;;;11.50;99.90;;;;;;4961886;28;20027;-63
2024/03/21 08:22:24;;;;;;;12.73;5.90;;;11.50;99.90;;;;;;4973091;28;20036;-62
2024/03/21 08:24:50;;;;;;;16.42;7.00;;;11.50;99.90;;;;;;4970479;28;20101;-63
2024/03/21 08:27:18;;;;;;;14.48;6.32;;;11.40;99.90;;;;;;4967878;28;20145;-63
2024/03/21 08:29:45;;;;;;;14.38;6.38;;;11.40;99.90;;;;;;4967796;28;20414;-62
2024/03/21 08:32:13;;;;;;;13.85;5.03;;;11.30;99.90;;;;;;4964827;28;20035;-62
2024/03/21 08:34:39;;;;;;;15.57;5.18;;;11.40;99.90;;;;;;4965941;28;20031;-62
2024/03/21 08:37:06;;;;;;;13.98;5.38;;;11.50;99.90;;;;;;4966528;28;20066;-62
2024/03/21 08:39:32;;;;;;;11.35;4.28;;;11.60;99.90;;;;;;4963439;28;20030;-63
2024/03/21 08:41:57;;;;;;;13.73;5.60;;;11.60;99.90;;;;;;4965298;28;20399;-63
2024/03/21 08:44:23;;;;;;;11.63;5.32;;;11.60;99.90;;;;;;4968308;28;20104;-63
2024/03/21 08:46:48;;;;;;;11.07;5.22;;;11.50;99.90;;;;;;4961997;28;20042;-62
2024/03/21 08:49:14;;;;;;;14.77;5.53;;;11.40;99.90;;;;;;4970869;28;20370;-62
2024/03/21 08:51:40;;;;;;;13.10;5.63;;;11.40;99.90;;;;;;4971519;28;20039;-62
2024/03/21 08:54:06;;;;;;;14.77;5.90;;;11.50;99.90;;;;;;4963538;28;20101;-62
2024/03/21 08:56:34;;;;;;;13.60;6.22;;;11.50;99.90;;;;;;4964081;28;20039;-63
2024/03/21 08:59:00;;;;;;;13.98;5.63;;;12.30;99.90;;;;;;4965195;28;20118;-63
2024/03/21 09:01:25;;;;;;;14.00;5.43;;;11.50;99.90;;;;;;4972334;28;20031;-63
2024/03/21 09:03:51;;;;;;;13.43;4.85;;;11.50;99.90;;;;;;4969115;28;20023;-63
2024/03/21 09:06:18;;;;;;;9.18;3.78;;;11.30;99.90;;;;;;4971301;28;20071;-63
2024/03/21 09:08:44;;;;;;;14.23;5.80;;;11.30;99.90;;;;;;4965597;28;20027;-63
2024/03/21 09:11:10;;;;;;;12.02;5.85;;;11.40;99.90;;;;;;4971458;28;20038;-63
2024/03/21 09:13:35;;;;;;;14.18;5.63;;;11.40;99.90;;;;;;4974606;28;20030;-63
2024/03/21 09:16:01;;;;;;;13.50;5.72;;;11.30;99.90;;;;;;4961310;28;20047;-63
2024/03/21 09:18:27;;;;;;;11.25;4.57;;;11.20;99.90;;;;;;4969904;28;20047;-63
2024/03/21 09:20:55;;;;;;;10.63;4.47;;;11.40;99.90;;;;;;4970420;28;20026;-63
2024/03/21 09:23:22;;;;;;;12.15;4.72;;;11.50;99.90;;;;;;4970048;28;20426;-63
2024/03/21 09:25:47;;;;;;;11.93;5.95;;;11.40;99.90;;;;;;4962472;28;20029;-63
2024/03/21 09:28:14;;;;;;;10.95;4.32;;;11.50;99.90;;;;;;4970334;28;20034;-63
2024/03/21 09:30:44;;;;;;;13.40;5.72;;;11.70;99.90;;;;;;4969910;28;20080;-63
2024/03/21 09:33:13;;;;;;;12.45;5.10;;;12.00;99.90;;;;;;4976288;28;20124;-63
2024/03/21 09:35:39;;;;;;;11.38;4.68;;;12.70;99.90;;;;;;4986441;28;20503;-63
2024/03/21 09:38:04;;;;;;;13.10;4.78;;;12.90;99.90;;;;;;4984305;28;20119;-63
2024/03/21 09:40:30;;;;;;;12.40;6.22;;;12.60;99.90;;;;;;4978760;28;20828;-63
2024/03/21 09:42:56;;;;;;;11.85;5.45;;;12.10;99.90;;;;;;4980311;28;20022;-63
2024/03/21 09:45:24;;;;;;;10.75;4.10;;;11.90;99.90;;;;;;4976242;28;20038;-63
2024/03/21 09:47:50;;;;;;;12.85;5.45;;;11.90;99.90;;;;;;4974972;28;20043;-63
2024/03/21 09:50:18;;;;;;;14.55;7.32;;;12.10;99.90;;;;;;4994455;28;20105;-64
2024/03/21 09:52:44;;;;;;;11.77;4.75;;;12.30;99.90;;;;;;4973834;28;20480;-63
2024/03/21 09:55:14;;;;;;;12.45;5.57;;;12.10;99.90;;;;;;4973254;28;20450;-64
2024/03/21 09:57:41;;;;;;;11.48;4.97;;;12.30;99.90;;;;;;4968252;28;20367;-63
2024/03/21 10:00:16;;;;;;;11.77;5.63;;;13.20;99.90;;;;;;4975844;28;20521;-63
2024/03/21 10:02:46;;;;;;;11.80;5.70;;;14.10;99.90;;;;;;4970330;28;20026;-63
2024/03/21 10:05:21;;;;;;;;;;;14.40;99.90;;;;;;4976927;28;20667;-63
2024/03/21 10:07:48;;;;;;;11.70;5.35;;;14.20;99.90;;;;;;4975173;28;20843;-63
2024/03/21 10:10:14;;;;;;;12.75;5.32;;;14.10;99.90;;;;;;4967079;28;20036;-62
2024/03/21 10:12:40;;;;;;;12.40;5.82;;;13.90;99.90;;;;;;4974371;28;20139;-62
2024/03/21 10:15:13;;;;;;;14.30;5.85;;;13.70;99.90;;;;;;4970391;28;20046;-62
2024/03/21 10:17:41;;;;;;;15.88;6.22;;;13.40;99.90;;;;;;4975445;28;20031;-62
2024/03/21 10:20:09;;;;;;;13.77;5.75;;;13.10;99.90;;;;;;4968644;28;20031;-62
2024/03/21 10:22:35;;;;;;;19.65;5.72;;;13.00;99.90;;;;;;4963103;28;20091;-62
2024/03/21 10:25:05;;;;;;;12.48;5.93;;;13.00;99.90;;;;;;4970489;28;20023;-62
2024/03/21 10:27:31;;;;;;;;;;;13.00;99.90;;;;;;4967212;28;20109;-63
2024/03/21 10:29:57;;;;;;;10.75;4.97;;;13.20;99.90;;;;;;4967125;28;20001;-62
2024/03/21 10:32:24;;;;;;;11.35;5.28;;;13.70;99.90;;;;;;4974785;28;20359;-62
2024/03/21 10:34:53;;;;;;;10.95;4.78;;;13.60;99.90;;;;;;4971905;28;20077;-62
2024/03/21 10:37:21;;;;;;;10.55;4.35;;;13.50;99.90;;;;;;4981582;28;20093;-63
2024/03/21 10:39:47;;;;;;;13.35;6.10;;;13.20;99.90;;;;;;4969693;28;20059;-62
2024/03/21 10:42:28;;;;;;;11.45;5.90;;;13.10;99.90;;;;;;4975581;28;20041;-62
2024/03/21 10:44:59;;;;;;;16.25;6.70;;;12.80;99.90;;;;;;4972215;28;20027;-62
2024/03/21 10:47:26;;;;;;;13.85;6.78;;;12.70;99.90;;;;;;4962466;28;20100;-62
2024/03/21 10:49:53;;;;;;;14.50;6.57;;;12.60;99.90;;;;;;4979743;28;20473;-62
2024/03/21 10:52:19;;;;;;;14.63;7.88;;;12.50;99.90;;;;;;4976735;28;20054;-62
2024/03/21 10:54:50;;;;;;;12.43;6.03;;;12.60;99.90;;;;;;4969944;28;20402;-63
2024/03/21 10:57:23;;;;;;;13.07;6.63;;;12.60;99.90;;;;;;4968047;28;20027;-63
2024/03/21 11:00:13;;;;;;;14.98;6.43;;;12.50;99.90;;;;;;4977673;28;20461;-63
2024/03/21 11:02:42;;;;;;;11.57;5.30;;;12.30;99.90;;;;;;4974900;28;20458;-62
2024/03/21 11:05:12;;;;;;;17.20;5.85;;;12.20;99.90;;;;;;4969467;28;20501;-63
2024/03/21 11:07:44;;;;;;;15.00;4.97;;;12.10;99.90;;;;;;4964946;28;20030;-62
2024/03/21 11:10:18;;;;;;;15.48;5.30;;;11.80;99.90;;;;;;4972134;28;20030;-63
2024/03/21 11:12:45;;;;;;;13.30;6.90;;;11.70;99.90;;;;;;4972279;28;20035;-61
2024/03/21 11:15:11;;;;;;;13.63;5.82;;;11.90;99.90;;;;;;4967293;28;20051;-62
2024/03/21 11:17:38;;;;;;;11.88;4.32;;;11.90;99.90;;;;;;4974278;28;20065;-62
2024/03/21 11:20:09;;;;;;;9.18;3.83;;;11.90;99.90;;;;;;4975369;28;20037;-63
2024/03/21 11:22:35;;;;;;;10.85;4.20;;;11.90;99.90;;;;;;4972706;28;20029;-63
2024/03/21 11:25:02;;;;;;;9.90;4.68;;;12.00;99.90;;;;;;4969200;28;20581;-63
2024/03/21 11:27:29;;;;;;;12.60;5.25;;;12.40;99.90;;;;;;4964864;28;20060;-63
2024/03/21 11:29:55;;;;;;;10.32;4.63;;;12.80;99.90;;;;;;4970567;28;20478;-63
2024/03/21 11:32:23;;;;;;;12.93;4.97;;;13.70;99.90;;;;;;4967897;28;20398;-63
2024/03/21 11:34:49;;;;;;;8.05;3.53;;;15.00;99.90;;;;;;4967054;28;20030;-63
2024/03/21 11:37:15;;;;;;;11.13;5.00;;;15.10;99.90;;;;;;4975753;28;20114;-63
2024/03/21 11:39:41;;;;;;;10.57;5.03;;;14.80;99.90;;;;;;4970960;28;20176;-63
2024/03/21 11:42:11;;;;;;;9.60;4.70;;;15.30;99.90;;;;;;4970815;28;20084;-63
2024/03/21 11:44:42;;;;;;;10.32;4.82;;;15.80;99.90;;;;;;4970579;28;20478;-63
2024/03/21 11:47:12;;;;;;;12.50;4.40;;;15.80;99.90;;;;;;4969101;28;20037;-63
2024/03/21 11:49:42;;;;;;;9.98;4.68;;;15.80;99.90;;;;;;4980752;28;20058;-63
2024/03/21 11:52:15;;;;;;;10.13;4.80;;;15.50;99.90;;;;;;4969625;28;20383;-65
2024/03/21 11:54:41;;;;;;;10.43;5.18;;;15.00;99.90;;;;;;4961022;28;20039;-63
2024/03/21 11:57:10;;;;;;;10.43;4.28;;;15.00;99.90;;;;;;4977900;28;20062;-62
2024/03/21 11:59:38;;;;;;;9.40;3.75;;;14.70;99.90;;;;;;4973224;28;20022;-63
2024/03/21 12:02:17;;;;;;;9.80;4.65;;;14.40;99.90;;;;;;4965728;28;20019;-63
2024/03/21 12:04:44;;;;;;;12.27;5.38;;;14.00;99.90;;;;;;4968083;28;20015;-63
2024/03/21 12:07:16;;;;;;;12.52;4.20;;;14.00;99.90;;;;;;4964583;28;20453;-63
2024/03/21 12:09:42;;;;;;;9.75;4.75;;;14.00;99.90;;;;;;4966656;28;20061;-63
2024/03/21 12:12:26;;;;;;;9.90;4.30;;;14.00;99.90;;;;;;4986629;28;20031;-62
2024/03/21 12:14:51;;;;;;;8.98;3.72;;;14.20;99.90;;;;;;4973178;28;20135;-64
2024/03/21 12:17:17;;;;;;;10.48;4.38;;;13.80;99.90;;;;;;4964316;28;20083;-64
2024/03/21 12:19:43;;;;;;;9.75;3.85;;;13.90;99.90;;;;;;4996264;28;20049;-64
2024/03/21 12:22:11;;;;;;;9.07;4.00;;;14.20;99.90;;;;;;4968495;28;20034;-64
2024/03/21 12:24:39;;;;;;;10.43;3.60;;;14.10;99.90;;;;;;4958321;28;20027;-67
2024/03/21 12:27:05;;;;;;;7.15;2.42;;;13.90;99.90;;;;;;4974375;28;20026;-64
2024/03/21 12:29:30;;;;;;;9.48;3.05;;;13.90;99.90;;;;;;4972835;28;20418;-64
2024/03/21 12:31:56;;;;;;;9.30;3.97;;;14.00;99.90;;;;;;4990547;28;20410;-64
2024/03/21 12:34:22;;;;;;;10.10;3.53;;;13.80;99.90;;;;;;4965659;28;20053;-64
2024/03/21 12:36:47;;;;;;;8.73;3.78;;;13.90;99.90;;;;;;4965610;28;20064;-64
2024/03/21 12:39:15;;;;;;;13.13;3.83;;;14.20;99.90;;;;;;4968741;28;20037;-63
2024/03/21 12:41:41;;;;;;;11.80;5.22;;;14.30;99.90;;;;;;4973953;28;20070;-64
2024/03/21 12:44:09;;;;;;;12.27;4.75;;;14.00;99.90;;;;;;4975621;28;20027;-64